Time;durP1;ratioP1;P1;durP2;ratioP2;P2;SDS_P1;SDS_P2;PMS_P1;PMS_P2;Temp;Humidity;BMP_temperature;BMP_pressure;BME280_temperature;BME280_humidity;BME280_pressure;Samples;Min_cycle;Max_cycle;Signal;HPM_P1;HPM_P2
2021/05/27 00:01:37;;;;;;;8.85;7.00;;;;;;;9.29;100.00;99446.19;5054510;28;20190;-76
2021/05/27 00:04:04;;;;;;;7.78;6.55;;;;;;;9.37;100.00;99452.00;5053754;28;20206;-75
2021/05/27 00:06:30;;;;;;;8.55;7.30;;;;;;;9.36;100.00;99460.16;5054774;28;20281;-76
2021/05/27 00:08:56;;;;;;;9.43;7.07;;;;;;;9.37;100.00;99456.53;5054708;28;20233;-76
2021/05/27 00:11:22;;;;;;;7.80;7.00;;;;;;;9.38;100.00;99467.19;5054378;28;20242;-76
2021/05/27 00:13:49;;;;;;;7.97;7.10;;;;;;;9.33;100.00;99468.38;5054331;28;20529;-77
2021/05/27 00:16:15;;;;;;;7.88;7.00;;;;;;;9.24;100.00;99468.91;5054261;28;20301;-76
2021/05/27 00:18:41;;;;;;;8.00;7.30;;;;;;;9.16;100.00;99470.19;5054652;28;20721;-75
2021/05/27 00:21:07;;;;;;;11.57;8.10;;;;;;;9.16;100.00;99472.88;5054123;28;20187;-75
2021/05/27 00:23:34;;;;;;;8.20;7.20;;;;;;;9.33;100.00;99466.56;5053170;28;20283;-75
2021/05/27 00:26:00;;;;;;;10.27;7.63;;;;;;;9.38;100.00;99474.38;5054145;28;20692;-75
2021/05/27 00:28:26;;;;;;;8.15;7.35;;;;;;;9.52;100.00;99474.50;5053806;28;20325;-76
2021/05/27 00:30:53;;;;;;;7.65;6.72;;;;;;;9.54;100.00;99469.91;5053914;28;20225;-75
2021/05/27 00:33:19;;;;;;;9.93;7.45;;;;;;;9.51;100.00;99475.44;5053558;28;20236;-75
2021/05/27 00:35:45;;;;;;;8.23;7.38;;;;;;;9.50;100.00;99475.53;5053598;28;20276;-76
2021/05/27 00:38:11;;;;;;;7.88;7.07;;;;;;;9.41;100.00;99476.91;5054136;28;20236;-77
2021/05/27 00:40:37;;;;;;;9.40;7.82;;;;;;;9.46;100.00;99479.34;5053674;28;20700;-76
2021/05/27 00:43:04;;;;;;;9.18;7.35;;;;;;;9.54;100.00;99483.34;5053808;28;20203;-75
2021/05/27 00:45:30;;;;;;;10.30;7.80;;;;;;;9.67;100.00;99486.19;5053333;28;20223;-76
2021/05/27 00:47:57;;;;;;;7.88;7.05;;;;;;;9.89;100.00;99487.69;5053388;28;20289;-76
2021/05/27 00:50:23;;;;;;;9.00;7.50;;;;;;;9.98;99.30;99484.44;5053696;28;20260;-76
2021/05/27 00:52:50;;;;;;;11.55;8.77;;;;;;;10.19;97.16;99477.81;5052985;28;20184;-76
2021/05/27 00:55:19;;;;;;;8.85;6.75;;;;;;;10.29;95.99;99488.06;5053496;28;20258;-76
2021/05/27 00:57:45;;;;;;;6.60;6.00;;;;;;;10.36;95.17;99484.94;5053204;28;20188;-76
2021/05/27 01:00:13;;;;;;;9.15;7.07;;;;;;;10.31;95.10;99487.06;5053524;28;20192;-75
2021/05/27 01:02:39;;;;;;;8.40;7.55;;;;;;;10.41;94.82;99490.06;5053527;28;20210;-76
2021/05/27 01:05:10;;;;;;;9.68;7.22;;;;;;;10.39;94.33;99483.91;5053194;28;20220;-76
2021/05/27 01:07:37;;;;;;;8.45;7.55;;;;;;;10.52;92.69;99494.81;5053157;28;20212;-76
2021/05/27 01:10:04;;;;;;;8.57;6.95;;;;;;;10.22;93.98;99492.91;5053182;28;20197;-76
2021/05/27 01:12:30;;;;;;;8.18;7.03;;;;;;;10.05;95.75;99498.41;5053429;28;20198;-76
2021/05/27 01:17:40;;;;;;;8.52;7.72;;;;;;;9.96;96.37;99497.97;5053121;28;20547;-77
2021/05/27 01:20:10;;;;;;;10.13;7.80;;;;;;;9.93;96.92;99505.38;5053036;28;20279;-76
2021/05/27 01:22:38;;;;;;;8.90;7.55;;;;;;;9.94;96.86;99499.03;5053215;28;20209;-77
2021/05/27 01:25:06;;;;;;;9.15;8.00;;;;;;;9.81;98.24;99505.13;5052640;28;20195;-76
2021/05/27 01:27:32;;;;;;;8.30;7.50;;;;;;;9.82;98.89;99505.97;5052888;28;20278;-75
2021/05/27 01:29:58;;;;;;;9.32;8.43;;;;;;;10.00;97.74;99494.16;5053185;28;20291;-76
2021/05/27 01:32:24;;;;;;;9.63;7.95;;;;;;;9.93;98.03;99503.53;5053045;28;20194;-76
2021/05/27 01:34:51;;;;;;;8.73;7.35;;;;;;;9.81;98.93;99505.13;5052942;28;20188;-76
2021/05/27 01:37:17;;;;;;;10.00;8.70;;;;;;;9.92;98.81;99500.94;5053283;28;20308;-76
2021/05/27 01:39:45;;;;;;;10.93;7.63;;;;;;;9.82;99.35;99503.28;5052776;28;20242;-77
2021/05/27 01:42:12;;;;;;;9.77;8.77;;;;;;;9.77;100.00;99497.31;5053231;28;20649;-75
2021/05/27 01:44:38;;;;;;;9.73;8.40;;;;;;;9.90;99.67;99505.53;5053256;28;20282;-76
2021/05/27 01:47:04;;;;;;;10.73;8.25;;;;;;;9.92;99.41;99512.56;5053103;28;20313;-77
2021/05/27 01:49:30;;;;;;;9.10;8.10;;;;;;;9.87;100.00;99513.78;5052689;28;20222;-77
2021/05/27 01:51:56;;;;;;;11.00;8.20;;;;;;;9.92;100.00;99517.06;5053183;28;20286;-76
2021/05/27 01:54:22;;;;;;;8.60;7.70;;;;;;;9.96;99.70;99516.81;5053208;28;20225;-75
2021/05/27 01:56:49;;;;;;;9.85;7.53;;;;;;;9.97;99.82;99509.59;5052881;28;20239;-74
2021/05/27 01:59:15;;;;;;;10.52;8.27;;;;;;;10.02;99.24;99503.03;5053137;28;20196;-76
2021/05/27 02:01:41;;;;;;;8.60;7.68;;;;;;;10.00;99.24;99498.69;5052851;28;20226;-75
2021/05/27 02:04:08;;;;;;;8.77;7.28;;;;;;;10.11;98.42;99498.94;5052946;28;20208;-76
2021/05/27 02:06:34;;;;;;;7.78;6.97;;;;;;;9.99;98.56;99502.31;5053194;28;20278;-75
2021/05/27 02:09:10;;;;;;;8.25;7.25;;;;;;;10.00;99.00;99498.69;5052691;28;20627;-78
2021/05/27 02:11:38;;;;;;;8.65;7.43;;;;;;;9.95;99.04;99498.94;5052780;28;20186;-74
2021/05/27 02:14:07;;;;;;;8.85;7.32;;;;;;;9.99;99.22;99496.94;5053123;28;20220;-77
2021/05/27 02:16:34;;;;;;;7.90;6.90;;;;;;;10.03;98.71;99501.19;5052733;28;20210;-76
2021/05/27 02:19:00;;;;;;;9.40;6.90;;;;;;;10.15;98.30;99503.19;5052666;28;20291;-75
2021/05/27 02:21:26;;;;;;;7.45;6.70;;;;;;;10.16;97.72;99507.59;5052582;28;20761;-76
2021/05/27 02:23:54;;;;;;;9.63;7.90;;;;;;;10.12;97.45;99503.34;5052794;28;20187;-76
2021/05/27 02:26:21;;;;;;;9.80;7.07;;;;;;;10.09;98.30;99503.53;5053173;28;20202;-75
2021/05/27 02:28:47;;;;;;;9.73;7.30;;;;;;;10.14;97.57;99509.50;5056540;28;20230;-75
2021/05/27 02:31:15;;;;;;;7.88;7.07;;;;;;;10.05;97.16;99515.41;5056259;28;20283;-76
2021/05/27 02:33:41;;;;;;;8.10;7.40;;;;;;;10.07;97.58;99515.34;5056036;28;20287;-75
2021/05/27 02:36:08;;;;;;;9.85;8.00;;;;;;;10.06;98.26;99511.75;5055944;28;20209;-77
2021/05/27 02:38:36;;;;;;;8.65;7.05;;;;;;;10.12;97.64;99508.72;5056414;28;20199;-74
2021/05/27 02:41:02;;;;;;;8.18;7.15;;;;;;;10.12;97.41;99507.88;5055976;28;20186;-76
2021/05/27 02:43:29;;;;;;;8.10;7.28;;;;;;;10.32;96.27;99509.44;5055898;28;20190;-76
2021/05/27 02:45:56;;;;;;;9.70;7.18;;;;;;;10.13;96.41;99507.78;5056160;28;20235;-76
2021/05/27 02:48:23;;;;;;;9.50;7.38;;;;;;;10.14;97.15;99509.50;5056254;28;20290;-76
2021/05/27 02:50:49;;;;;;;9.32;7.55;;;;;;;10.26;96.49;99509.75;5055847;28;20202;-75
2021/05/27 02:53:16;;;;;;;8.05;7.25;;;;;;;10.19;96.18;99512.78;5055676;28;20197;-76
2021/05/27 02:55:42;;;;;;;8.43;7.60;;;;;;;10.25;95.55;99505.34;5055764;28;20630;-76
2021/05/27 02:58:08;;;;;;;7.85;7.15;;;;;;;10.15;96.40;99516.63;5055735;28;20215;-76
2021/05/27 03:00:34;;;;;;;8.50;7.05;;;;;;;10.31;94.99;99508.56;5055853;28;20220;-76
2021/05/27 03:03:01;;;;;;;8.15;7.00;;;;;;;10.26;95.14;99513.31;5055489;28;20205;-76
2021/05/27 03:05:27;;;;;;;8.63;6.28;;;;;;;10.16;95.46;99504.91;5056037;28;20191;-77
2021/05/27 03:07:54;;;;;;;8.15;6.65;;;;;;;10.08;96.09;99504.47;5055765;28;20332;-75
2021/05/27 03:10:20;;;;;;;8.93;6.97;;;;;;;10.15;95.91;99513.06;5055730;28;20676;-75
2021/05/27 03:12:46;;;;;;;7.97;7.20;;;;;;;10.00;96.78;99509.44;5055331;28;20284;-76
2021/05/27 03:15:13;;;;;;;8.70;7.80;;;;;;;10.15;95.90;99497.81;5055512;28;20966;-75
2021/05/27 03:17:39;;;;;;;7.38;6.60;;;;;;;10.26;95.33;99507.91;5055774;28;20734;-76
2021/05/27 03:20:06;;;;;;;8.20;7.00;;;;;;;10.41;94.08;99507.06;5055367;28;20695;-76
2021/05/27 03:22:33;;;;;;;7.50;6.72;;;;;;;10.44;93.60;99509.56;5055547;28;20207;-76
2021/05/27 03:24:59;;;;;;;7.80;6.70;;;;;;;10.39;93.51;99510.81;5055329;28;20207;-76
2021/05/27 03:27:26;;;;;;;7.80;7.03;;;;;;;10.39;93.14;99508.97;5055642;28;20196;-77
2021/05/27 03:29:52;;;;;;;13.10;7.30;;;;;;;10.28;92.88;99511.41;5055448;28;20277;-76
2021/05/27 03:32:18;;;;;;;8.38;6.95;;;;;;;10.03;94.32;99507.44;5054917;28;20288;-77
2021/05/27 03:34:44;;;;;;;10.52;6.60;;;;;;;10.08;94.42;99515.22;5054936;28;20211;-76
2021/05/27 03:37:10;;;;;;;9.50;7.13;;;;;;;9.97;95.16;99512.28;5054941;28;20303;-75
2021/05/27 03:39:37;;;;;;;8.68;7.60;;;;;;;9.94;95.24;99523.22;5054050;28;20262;-76
2021/05/27 03:42:04;;;;;;;7.68;6.95;;;;;;;9.93;95.82;99519.69;5055169;28;20683;-76
2021/05/27 03:44:30;;;;;;;9.50;7.95;;;;;;;9.89;95.57;99518.13;5054857;28;20227;-77
2021/05/27 03:46:56;;;;;;;7.88;7.13;;;;;;;9.78;96.72;99515.16;5054956;28;20235;-76
2021/05/27 03:49:22;;;;;;;9.23;7.20;;;;;;;9.77;96.09;99517.00;5054814;28;20646;-75
2021/05/27 03:51:48;;;;;;;11.75;7.90;;;;;;;9.82;96.51;99522.13;5054439;28;20277;-75
2021/05/27 03:54:14;;;;;;;11.55;7.55;;;;;;;9.78;96.75;99520.53;5054723;28;20281;-76
2021/05/27 03:56:41;;;;;;;8.45;7.35;;;;;;;9.78;96.69;99524.09;5054850;28;20306;-75
2021/05/27 04:01:52;;;;;;;9.05;7.88;;;;;;;9.73;96.88;99518.13;5054565;28;20656;-77
2021/05/27 04:07:12;;;;;;;8.55;7.38;;;;;;;9.80;96.64;99529.41;5054479;28;20249;-75
2021/05/27 04:09:38;;;;;;;9.43;7.38;;;;;;;9.78;96.70;99526.78;5054864;28;20316;-75
2021/05/27 04:17:35;;;;;;;7.90;7.15;;;;;;;10.14;94.42;99528.34;5054371;28;20321;-76
2021/05/27 04:20:02;;;;;;;9.43;7.63;;;;;;;9.99;95.21;99532.78;5054087;28;20267;-77
2021/05/27 04:22:28;;;;;;;10.52;8.55;;;;;;;9.98;95.57;99536.41;5054464;28;20299;-76
2021/05/27 04:24:54;;;;;;;13.90;8.32;;;;;;;9.98;95.66;99539.09;5054307;28;20653;-77
2021/05/27 04:27:21;;;;;;;9.65;8.00;;;;;;;10.02;95.91;99537.13;5053543;28;20267;-76
2021/05/27 04:29:47;;;;;;;10.30;8.25;;;;;;;10.14;95.22;99544.47;5053825;28;20187;-76
2021/05/27 04:34:54;;;;;;;9.70;7.63;;;;;;;10.22;94.99;99538.66;5053852;28;20203;-77
2021/05/27 04:37:20;;;;;;;10.65;8.80;;;;;;;10.22;95.17;99542.22;5054102;28;20219;-75
2021/05/27 04:39:46;;;;;;;9.13;8.10;;;;;;;10.40;93.94;99536.75;5053982;28;20264;-75
2021/05/27 04:42:12;;;;;;;12.00;8.70;;;;;;;10.32;94.28;99539.91;5053705;28;20190;-75
2021/05/27 04:44:39;;;;;;;10.10;8.02;;;;;;;10.30;94.40;99543.66;5053811;28;20297;-75
2021/05/27 04:47:05;;;;;;;12.35;9.57;;;;;;;10.36;94.18;99544.16;5054083;28;20228;-75
2021/05/27 04:49:31;;;;;;;9.18;8.23;;;;;;;10.55;93.14;99549.31;5053498;28;20194;-75
2021/05/27 04:51:57;;;;;;;13.00;9.25;;;;;;;10.37;94.12;99542.31;5053744;28;20538;-77
2021/05/27 04:54:23;;;;;;;13.77;9.65;;;;;;;10.35;94.10;99546.94;5053449;28;20195;-76
2021/05/27 04:56:49;;;;;;;13.70;10.07;;;;;;;10.25;94.88;99549.25;5053828;28;20267;-76
2021/05/27 04:59:15;;;;;;;14.70;9.90;;;;;;;10.22;95.67;99553.00;5053809;28;20226;-77
2021/05/27 05:01:42;;;;;;;13.38;10.80;;;;;;;10.41;95.00;99552.81;5053691;28;20239;-75
2021/05/27 05:04:08;;;;;;;12.35;10.10;;;;;;;10.36;95.11;99554.06;5053403;28;20275;-76
2021/05/27 05:06:34;;;;;;;11.80;9.52;;;;;;;10.48;94.40;99557.84;5053399;28;20333;-76
2021/05/27 05:09:01;;;;;;;11.38;9.60;;;;;;;10.20;95.94;99562.13;5053645;28;20678;-77
2021/05/27 05:11:27;;;;;;;11.65;9.98;;;;;;;10.21;96.24;99567.38;5053486;28;20581;-77
2021/05/27 05:13:53;;;;;;;12.23;8.52;;;;;;;10.40;95.29;99569.94;5052657;28;20191;-76
2021/05/27 05:16:19;;;;;;;10.90;9.25;;;;;;;10.41;95.15;99571.66;5058471;28;20261;-75
2021/05/27 05:18:46;;;;;;;11.40;9.10;;;;;;;10.41;95.10;99574.34;5073585;28;20183;-76
2021/05/27 05:21:12;;;;;;;12.30;9.70;;;;;;;10.45;94.77;99569.69;5055359;28;20199;-77
2021/05/27 05:23:39;;;;;;;9.90;8.65;;;;;;;10.51;93.92;99571.97;5052803;28;20240;-77
2021/05/27 05:26:05;;;;;;;10.07;9.07;;;;;;;10.59;93.44;99579.63;5053006;28;20188;-76
2021/05/27 05:28:31;;;;;;;10.00;9.00;;;;;;;10.68;92.84;99562.06;5053245;28;20209;-77
2021/05/27 05:30:58;;;;;;;13.88;8.35;;;;;;;10.77;92.46;99570.47;5053776;28;20590;-77
2021/05/27 05:33:24;;;;;;;10.52;8.20;;;;;;;10.72;91.96;99571.69;5054376;28;20264;-76
2021/05/27 05:35:52;;;;;;;8.93;8.02;;;;;;;10.88;91.28;99575.22;5052613;28;20236;-77
2021/05/27 05:38:18;;;;;;;10.63;8.85;;;;;;;10.76;91.26;99568.75;5052779;28;20195;-75
2021/05/27 05:40:44;;;;;;;10.80;9.05;;;;;;;10.85;91.10;99570.00;5051960;28;20232;-76
2021/05/27 05:43:10;;;;;;;8.60;7.78;;;;;;;11.01;90.05;99567.25;5052798;28;20579;-76
2021/05/27 05:45:36;;;;;;;9.05;7.93;;;;;;;11.16;89.25;99569.03;5052737;28;20598;-77
2021/05/27 05:48:04;;;;;;;10.45;8.88;;;;;;;11.25;88.71;99573.84;5052106;28;20232;-76
2021/05/27 05:50:46;;;;;;;8.85;7.38;;;;;;;11.51;87.12;99576.78;5052465;28;20265;-76
2021/05/27 05:53:15;;;;;;;9.48;7.80;;;;;;;11.37;86.75;99574.06;5052242;28;20201;-77
2021/05/27 05:55:42;;;;;;;8.75;7.85;;;;;;;11.20;87.25;99573.28;5052422;28;20262;-75
2021/05/27 05:58:08;;;;;;;8.60;7.75;;;;;;;11.11;87.14;99573.84;5032695;28;20216;-77
2021/05/27 06:00:34;;;;;;;10.05;7.65;;;;;;;11.24;86.73;99579.34;5038401;28;20615;-76
2021/05/27 06:03:01;;;;;;;7.65;6.90;;;;;;;11.15;87.45;99572.69;5055735;28;20276;-78
2021/05/27 06:05:27;;;;;;;9.45;7.90;;;;;;;11.37;86.04;99574.06;5057029;28;20189;-75
2021/05/27 06:07:55;;;;;;;10.18;7.43;;;;;;;11.53;84.46;99574.81;5055926;28;20684;-76
2021/05/27 06:10:22;;;;;;;6.68;5.95;;;;;;;11.83;82.55;99579.28;5056208;28;20258;-76
2021/05/27 06:12:49;;;;;;;7.68;6.30;;;;;;;12.04;80.06;99582.47;5056417;28;20193;-75
2021/05/27 06:15:20;;;;;;;7.82;6.32;;;;;;;12.07;80.07;99583.13;5055967;28;20616;-76
2021/05/27 06:17:46;;;;;;;9.25;6.57;;;;;;;11.88;80.74;99585.28;5056322;28;20212;-75
2021/05/27 06:20:13;;;;;;;10.05;5.85;;;;;;;12.17;79.11;99583.41;5055758;28;20281;-76
2021/05/27 06:22:39;;;;;;;7.47;6.15;;;;;;;11.98;79.52;99589.09;5055744;28;20209;-76
2021/05/27 06:25:06;;;;;;;8.82;5.93;;;;;;;12.24;78.39;99590.13;5055873;28;20573;-76
2021/05/27 06:27:33;;;;;;;6.60;5.05;;;;;;;12.28;76.45;99601.59;5056102;28;20678;-76
2021/05/27 06:29:59;;;;;;;8.02;4.80;;;;;;;12.53;75.35;99590.06;5055839;28;20818;-76
2021/05/27 06:32:25;;;;;;;7.10;5.00;;;;;;;12.77;74.63;99590.22;5054227;28;20709;-76
2021/05/27 06:34:52;;;;;;;6.20;4.85;;;;;;;12.79;74.80;99596.41;5055255;28;20273;-74
2021/05/27 06:37:18;;;;;;;5.88;4.63;;;;;;;12.70;73.64;99599.72;5052814;28;21940;-77
2021/05/27 06:39:44;;;;;;;9.25;4.47;;;;;;;12.62;73.39;99600.25;5054609;28;20778;-76
2021/05/27 06:42:11;;;;;;;7.78;4.50;;;;;;;12.40;74.16;99608.03;5055738;28;20197;-76
2021/05/27 06:44:38;;;;;;;5.38;4.88;;;;;;;12.42;74.46;99606.09;5055302;28;20217;-76
2021/05/27 06:47:04;;;;;;;6.25;5.10;;;;;;;12.49;73.51;99596.63;5055896;28;20538;-76
2021/05/27 06:49:30;;;;;;;7.65;3.80;;;;;;;12.78;72.89;99599.22;5055719;28;20288;-75
2021/05/27 06:51:57;;;;;;;4.25;3.70;;;;;;;12.63;71.18;99593.84;5054479;28;20272;-75
2021/05/27 06:54:23;;;;;;;4.73;3.40;;;;;;;12.82;70.46;99592.63;5050859;28;20518;-76
2021/05/27 06:56:49;;;;;;;6.50;4.40;;;;;;;12.94;70.00;99591.81;5053615;28;20518;-74
2021/05/27 06:59:15;;;;;;;3.90;3.50;;;;;;;13.26;68.75;99588.72;5053721;28;20673;-75
2021/05/27 07:01:43;;;;;;;4.50;3.97;;;;;;;13.29;67.23;99588.53;5053356;28;20273;-74
2021/05/27 07:04:09;;;;;;;3.20;2.90;;;;;;;13.20;67.43;99597.25;5053800;28;20212;-76
2021/05/27 07:06:35;;;;;;;3.20;2.90;;;;;;;13.46;65.40;99599.06;5053906;28;20186;-75
2021/05/27 07:09:01;;;;;;;6.18;4.43;;;;;;;13.56;64.38;99600.13;5053757;28;20674;-75
2021/05/27 07:11:27;;;;;;;4.43;3.05;;;;;;;13.83;63.67;99595.56;5053682;28;20234;-74
2021/05/27 07:13:53;;;;;;;3.30;2.90;;;;;;;14.18;62.22;99606.56;5053779;28;20272;-74
2021/05/27 07:16:20;;;;;;;2.70;2.50;;;;;;;13.65;62.94;99604.00;5053790;28;20675;-75
2021/05/27 07:18:47;;;;;;;2.65;2.45;;;;;;;13.89;61.88;99614.09;5052530;28;20229;-75
2021/05/27 07:21:13;;;;;;;3.15;2.80;;;;;;;13.92;61.08;99608.44;5053638;28;20831;-75
2021/05/27 07:23:40;;;;;;;3.47;2.88;;;;;;;13.92;61.08;99612.00;5053916;28;20205;-74
2021/05/27 07:26:06;;;;;;;13.63;7.78;;;;;;;14.00;61.48;99610.59;5053150;28;20221;-75
2021/05/27 07:28:33;;;;;;;6.45;2.60;;;;;;;14.51;59.53;99619.44;5053179;28;20655;-74
2021/05/27 07:31:00;;;;;;;3.22;2.40;;;;;;;15.14;57.46;99613.88;5053246;28;20307;-74
2021/05/27 07:33:26;;;;;;;5.03;3.17;;;;;;;15.48;56.67;99617.56;5052859;28;20242;-75
2021/05/27 07:35:53;;;;;;;4.13;3.20;;;;;;;14.86;58.19;99620.56;5053018;28;20189;-74
2021/05/27 07:38:19;;;;;;;5.03;2.80;;;;;;;14.19;59.83;99630.81;5053284;28;20666;-73
2021/05/27 07:40:46;;;;;;;3.42;2.22;;;;;;;14.16;59.32;99624.78;5053147;28;20707;-74
2021/05/27 07:43:12;;;;;;;3.85;3.20;;;;;;;13.97;60.16;99626.09;5053149;28;20636;-75
2021/05/27 07:45:39;;;;;;;3.03;2.72;;;;;;;13.81;61.12;99635.41;5053402;28;20189;-76
2021/05/27 07:48:05;;;;;;;7.20;3.22;;;;;;;13.68;61.90;99636.28;5053267;28;20179;-74
2021/05/27 07:50:32;;;;;;;4.00;2.55;;;;;;;13.88;61.58;99642.09;5053190;28;20234;-74
2021/05/27 07:52:59;;;;;;;4.95;3.05;;;;;;;13.88;61.34;99634.84;5052818;28;20194;-76
2021/05/27 07:55:26;;;;;;;3.72;3.40;;;;;;;13.87;61.23;99626.88;5052747;28;20193;-74
2021/05/27 07:57:52;;;;;;;3.70;2.80;;;;;;;13.92;60.79;99627.38;5052738;28;20582;-74
2021/05/27 08:00:19;;;;;;;5.13;3.10;;;;;;;13.61;61.83;99618.72;5053319;28;20200;-75
2021/05/27 08:02:47;;;;;;;3.95;3.03;;;;;;;13.85;61.44;99621.53;5053364;28;20285;-74
2021/05/27 08:05:15;;;;;;;4.45;3.20;;;;;;;13.96;60.65;99624.34;5052750;28;20205;-75
2021/05/27 08:07:41;;;;;;;5.57;3.38;;;;;;;14.00;61.25;99618.72;5052811;28;20233;-75
2021/05/27 08:10:10;;;;;;;9.02;5.78;;;;;;;14.64;60.08;99627.56;5052254;28;20208;-74
2021/05/27 08:12:36;;;;;;;3.22;2.80;;;;;;;14.66;58.78;99627.47;5051917;28;20204;-75
2021/05/27 08:15:05;;;;;;;3.70;3.38;;;;;;;14.82;58.32;99628.03;5052395;28;20187;-75
2021/05/27 08:17:31;;;;;;;6.57;4.07;;;;;;;15.15;57.42;99637.28;5052009;28;20219;-77
2021/05/27 08:19:57;;;;;;;3.55;3.20;;;;;;;15.50;56.92;99634.59;5051837;28;20199;-75
2021/05/27 08:22:23;;;;;;;3.17;2.45;;;;;;;15.27;56.76;99636.38;5052375;28;20206;-74
2021/05/27 08:24:50;;;;;;;3.10;2.80;;;;;;;15.56;56.75;99639.53;5052310;28;20199;-74
2021/05/27 08:27:17;;;;;;;3.42;3.13;;;;;;;14.88;57.61;99641.16;5052031;28;20204;-72
2021/05/27 08:29:43;;;;;;;3.90;2.80;;;;;;;14.64;59.79;99645.69;5052079;28;20192;-75
2021/05/27 08:32:09;;;;;;;3.38;3.08;;;;;;;14.41;60.11;99647.34;5052475;28;20223;-75
2021/05/27 08:34:35;;;;;;;4.03;2.70;;;;;;;14.45;59.78;99652.44;5051459;28;20303;-73
2021/05/27 08:37:01;;;;;;;6.53;3.40;;;;;;;14.93;58.60;99644.38;5052585;28;20625;-76
2021/05/27 08:39:27;;;;;;;4.65;3.50;;;;;;;14.73;58.64;99651.28;5052195;28;20275;-75
2021/05/27 08:41:54;;;;;;;4.60;3.33;;;;;;;14.41;60.22;99648.22;5051686;28;20563;-75
2021/05/27 08:44:20;;;;;;;4.78;3.15;;;;;;;14.70;59.80;99651.53;5051900;28;20206;-75
2021/05/27 08:46:48;;;;;;;3.85;3.33;;;;;;;14.19;60.72;99657.03;5052136;28;20273;-74
2021/05/27 08:49:14;;;;;;;3.47;3.08;;;;;;;14.07;61.48;99652.50;5052153;28;20540;-75
2021/05/27 08:51:40;;;;;;;3.90;3.50;;;;;;;14.11;62.04;99654.88;5052207;28;20653;-73
2021/05/27 08:54:07;;;;;;;4.13;3.05;;;;;;;14.29;61.94;99662.63;5051834;28;20277;-75
2021/05/27 08:56:34;;;;;;;6.43;3.20;;;;;;;14.06;62.62;99656.19;5051970;28;20308;-73
2021/05/27 08:59:01;;;;;;;3.90;3.13;;;;;;;14.07;62.37;99660.63;5052111;28;20221;-75
2021/05/27 09:01:28;;;;;;;5.07;3.50;;;;;;;13.88;63.10;99663.75;5043992;28;20248;-75
2021/05/27 09:03:54;;;;;;;6.25;3.78;;;;;;;13.94;61.98;99668.75;5051529;28;20186;-75
2021/05/27 09:06:21;;;;;;;6.47;3.63;;;;;;;14.00;62.14;99670.13;5051598;28;20201;-74
2021/05/27 09:08:47;;;;;;;5.78;3.30;;;;;;;14.46;60.75;99669.56;5051188;28;20708;-74
2021/05/27 09:11:15;;;;;;;3.60;3.13;;;;;;;14.29;60.16;99674.34;5051470;28;20268;-74
2021/05/27 09:13:51;;;;;;;6.15;3.80;;;;;;;14.44;60.02;99671.50;5051132;28;20294;-73
2021/05/27 09:16:18;;;;;;;9.15;3.78;;;;;;;14.42;60.25;99677.03;5051751;28;20734;-73
2021/05/27 09:18:45;;;;;;;3.95;3.55;;;;;;;14.34;60.59;99676.72;5051348;28;20321;-73
2021/05/27 09:21:13;;;;;;;3.53;2.83;;;;;;;14.75;59.32;99679.13;5051548;28;20203;-74
2021/05/27 09:23:46;;;;;;;4.05;3.42;;;;;;;14.76;59.63;99680.84;5050280;28;20275;-74
2021/05/27 09:26:15;;;;;;;6.88;3.78;;;;;;;15.31;58.15;99675.84;5049205;28;20890;-73
2021/05/27 09:28:42;;;;;;;4.60;3.70;;;;;;;15.30;57.89;99679.53;5051534;28;20211;-75
2021/05/27 09:31:11;;;;;;;9.73;4.07;;;;;;;15.25;58.82;99680.88;5052162;28;20282;-75
2021/05/27 09:33:39;;;;;;;4.38;3.65;;;;;;;14.60;60.81;99680.25;5052314;28;20707;-74
2021/05/27 09:36:09;;;;;;;5.38;3.72;;;;;;;14.82;60.15;99684.97;5053159;28;20652;-75
2021/05/27 09:38:38;;;;;;;5.97;4.20;;;;;;;15.10;58.94;99688.31;5055937;28;20209;-74
2021/05/27 09:41:15;;;;;;;5.63;3.53;;;;;;;15.09;59.52;99684.75;5055637;28;20627;-72
2021/05/27 09:43:43;;;;;;;5.75;4.00;;;;;;;15.18;59.24;99683.19;5055783;28;20580;-73
2021/05/27 09:46:10;;;;;;;6.65;4.43;;;;;;;15.22;59.14;99684.69;5055398;28;20213;-74
2021/05/27 09:48:37;;;;;;;4.20;3.80;;;;;;;15.09;59.81;99673.91;5055888;28;20993;-74
2021/05/27 09:51:04;;;;;;;4.25;3.85;;;;;;;15.55;59.01;99696.63;5055809;28;20871;-74
2021/05/27 09:53:33;;;;;;;5.78;4.38;;;;;;;15.43;58.32;99688.47;5054961;28;20218;-76
2021/05/27 09:56:01;;;;;;;5.20;4.22;;;;;;;15.68;57.83;99683.84;5055165;28;20244;-73
2021/05/27 09:58:27;;;;;;;4.00;3.60;;;;;;;15.94;56.97;99689.09;5055659;28;20278;-73
2021/05/27 10:00:55;;;;;;;4.47;3.53;;;;;;;16.03;56.35;99691.97;5055254;28;20657;-74
2021/05/27 10:03:35;;;;;;;5.05;3.90;;;;;;;15.99;56.34;99689.63;5054595;28;20201;-73
2021/05/27 10:06:05;;;;;;;5.93;3.70;;;;;;;16.05;56.71;99691.84;5035506;28;20643;-73
2021/05/27 10:08:48;;;;;;;4.15;3.55;;;;;;;15.60;57.55;99699.84;5034793;28;20216;-74
2021/05/27 10:11:15;;;;;;;4.50;4.03;;;;;;;15.93;56.64;99688.25;5035531;28;20246;-73
2021/05/27 10:13:42;;;;;;;5.53;4.20;;;;;;;15.84;56.57;99688.97;5035033;28;20240;-73
2021/05/27 10:16:11;;;;;;;6.45;3.88;;;;;;;16.26;55.33;99697.44;5035071;28;20197;-74
2021/05/27 10:18:37;;;;;;;3.50;3.20;;;;;;;16.15;55.29;99692.84;5035297;28;20240;-73
2021/05/27 10:21:04;;;;;;;4.90;3.75;;;;;;;16.21;55.47;99689.66;5034629;28;20221;-72
2021/05/27 10:23:32;;;;;;;5.22;3.58;;;;;;;15.78;56.26;99689.44;5047722;28;20201;-73
2021/05/27 10:25:58;;;;;;;4.00;3.70;;;;;;;16.25;55.28;99695.69;5054178;28;20197;-73
2021/05/27 10:28:25;;;;;;;5.93;5.05;;;;;;;16.46;55.08;99698.50;5054959;28;20258;-72
2021/05/27 10:30:52;;;;;;;4.53;3.35;;;;;;;16.75;53.68;99693.41;5054823;28;20275;-73
2021/05/27 10:33:20;;;;;;;4.70;4.00;;;;;;;16.95;52.96;99699.09;5054338;28;20190;-72
2021/05/27 10:35:48;;;;;;;7.38;4.60;;;;;;;16.84;53.30;99694.53;5053037;28;20693;-73
2021/05/27 10:38:16;;;;;;;6.22;4.30;;;;;;;16.68;53.88;99689.47;5054343;28;20221;-72
2021/05/27 10:40:44;;;;;;;4.18;3.78;;;;;;;16.99;52.36;99700.59;5054178;28;20316;-72
2021/05/27 10:43:13;;;;;;;4.32;3.15;;;;;;;16.67;53.69;99690.47;5054630;28;20200;-74
2021/05/27 10:46:07;;;;;;;6.43;4.13;;;;;;;16.35;54.04;99691.25;5054778;28;20196;-73
2021/05/27 10:48:42;;;;;;;4.95;3.72;;;;;;;16.01;55.48;99698.53;5046680;28;20193;-73
2021/05/27 10:53:55;;;;;;;6.13;3.30;;;;;;;15.99;56.43;99701.34;5053887;28;20558;-73
2021/05/27 10:56:38;;;;;;;3.15;2.88;;;;;;;15.98;56.46;99699.59;5053756;28;20296;-72
2021/05/27 10:59:05;;;;;;;3.42;3.13;;;;;;;16.49;54.71;99697.44;5054015;28;20322;-75
2021/05/27 11:01:51;;;;;;;4.00;2.75;;;;;;;16.85;53.27;99688.13;5054171;28;20645;-73
2021/05/27 11:04:27;;;;;;;6.53;3.38;;;;;;;17.01;52.51;99687.72;5054322;28;20288;-73
2021/05/27 11:07:17;;;;;;;5.20;3.45;;;;;;;16.51;54.03;99695.41;5053717;28;20188;-73
2021/05/27 11:09:46;;;;;;;6.10;3.50;;;;;;;16.26;53.88;99679.25;5054143;28;20586;-74
2021/05/27 11:12:17;;;;;;;2.63;2.42;;;;;;;15.86;55.16;99678.00;5053990;28;20205;-73
2021/05/27 11:14:46;;;;;;;2.90;2.10;;;;;;;16.31;54.68;99683.47;5054279;28;20622;-73
2021/05/27 11:17:18;;;;;;;3.67;2.72;;;;;;;16.07;55.41;99680.84;5053808;28;20217;-72
2021/05/27 11:19:49;;;;;;;3.95;2.55;;;;;;;16.04;55.35;99687.41;5053733;28;20236;-72
2021/05/27 11:22:40;;;;;;;2.40;2.20;;;;;;;16.25;53.52;99687.53;5053819;28;20215;-73
2021/05/27 11:25:28;;;;;;;2.80;2.60;;;;;;;16.85;51.92;99680.84;5053658;28;20189;-73
2021/05/27 11:27:56;;;;;;;2.90;2.20;;;;;;;16.74;51.79;99674.53;5053553;28;20333;-74
2021/05/27 11:30:25;;;;;;;2.72;2.53;;;;;;;16.93;51.32;99676.59;5053784;28;20221;-74
2021/05/27 11:32:54;;;;;;;4.93;3.58;;;;;;;17.27;50.41;99677.34;5053221;28;20201;-72
2021/05/27 11:35:22;;;;;;;3.15;2.70;;;;;;;17.65;48.73;99684.09;5053470;28;20228;-72
2021/05/27 11:37:50;;;;;;;5.22;3.30;;;;;;;17.21;50.33;99669.72;5053596;28;20248;-72
2021/05/27 11:40:18;;;;;;;2.83;2.60;;;;;;;16.44;52.14;99678.78;5053216;28;20264;-74
2021/05/27 11:42:48;;;;;;;7.25;3.55;;;;;;;16.82;52.26;99677.50;5052424;28;20193;-73
2021/05/27 11:45:17;;;;;;;3.95;2.85;;;;;;;17.55;50.67;99672.25;5053325;28;20273;-74
2021/05/27 11:47:43;;;;;;;3.30;2.70;;;;;;;17.48;49.86;99678.25;5052737;28;20221;-74
2021/05/27 11:50:13;;;;;;;3.63;2.95;;;;;;;16.67;51.81;99679.59;5052738;28;20210;-73
2021/05/27 11:52:39;;;;;;;3.28;2.30;;;;;;;17.12;50.39;99668.66;5053177;28;20641;-74
2021/05/27 11:55:11;;;;;;;2.83;2.60;;;;;;;17.24;50.18;99666.75;5053280;28;20186;-75